createdAt,value
2023-03-31T00:00:06.837Z,1000.36
2023-03-31T00:01:06.840Z,1000.36
2023-03-31T00:02:06.850Z,1000.39
2023-03-31T00:03:06.926Z,1000.38
2023-03-31T00:04:07.007Z,1000.37
2023-03-31T00:05:06.806Z,1000.37
2023-03-31T00:06:07.067Z,1000.36
2023-03-31T00:07:06.808Z,1000.34
2023-03-31T00:08:06.749Z,1000.35
2023-03-31T00:09:06.998Z,1000.35
2023-03-31T00:10:17.209Z,1000.36
2023-03-31T00:11:07.868Z,1000.35
2023-03-31T00:12:06.709Z,1000.37
2023-03-31T00:13:06.702Z,1000.40
2023-03-31T00:14:06.685Z,1000.34
2023-03-31T00:15:06.674Z,1000.37
2023-03-31T00:16:06.969Z,1000.37
2023-03-31T00:17:06.655Z,1000.33
2023-03-31T00:18:06.668Z,1000.34
2023-03-31T00:19:06.631Z,1000.28
2023-03-31T00:20:06.643Z,1000.28
2023-03-31T00:21:06.624Z,1000.28
2023-03-31T00:22:06.615Z,1000.23
2023-03-31T00:23:06.592Z,1000.26
2023-03-31T00:24:06.577Z,1000.26
2023-03-31T00:25:06.567Z,1000.26
2023-03-31T00:26:06.794Z,1000.23
2023-03-31T00:27:06.546Z,1000.19
2023-03-31T00:28:06.533Z,1000.17
2023-03-31T00:29:06.521Z,1000.20
2023-03-31T00:30:06.506Z,1000.18
2023-03-31T00:31:06.515Z,1000.20
2023-03-31T00:32:06.534Z,1000.18
2023-03-31T00:33:06.494Z,1000.16
2023-03-31T00:34:06.470Z,1000.14
2023-03-31T00:35:06.453Z,1000.12
2023-03-31T00:36:06.867Z,1000.14
2023-03-31T00:37:06.434Z,1000.14
2023-03-31T00:38:06.419Z,1000.13
2023-03-31T00:39:06.410Z,1000.14
2023-03-31T00:40:06.396Z,1000.11
2023-03-31T00:41:06.410Z,1000.11
2023-03-31T00:42:06.376Z,1000.14
2023-03-31T00:43:06.374Z,1000.12
2023-03-31T00:44:06.355Z,1000.11
2023-03-31T00:45:06.343Z,1000.08
2023-03-31T00:46:06.500Z,1000.11
2023-03-31T00:47:06.340Z,1000.11
2023-03-31T00:48:06.335Z,1000.12
2023-03-31T00:49:06.320Z,1000.08
2023-03-31T00:50:06.287Z,1000.05
2023-03-31T00:51:06.278Z,1000.07
2023-03-31T00:52:06.302Z,1000.05
2023-03-31T00:53:06.266Z,1000.06
2023-03-31T00:54:06.275Z,1000.03
2023-03-31T00:55:06.234Z,1000.02
2023-03-31T00:56:06.382Z,999.99
2023-03-31T00:57:06.231Z,999.98
2023-03-31T00:58:06.210Z,999.99
2023-03-31T00:59:06.189Z,999.96
2023-03-31T01:00:06.180Z,999.97
2023-03-31T01:01:06.229Z,999.96
2023-03-31T01:02:06.176Z,999.91
2023-03-31T01:03:06.248Z,999.88
2023-03-31T01:04:06.217Z,999.90
2023-03-31T01:05:13.756Z,999.90
2023-03-31T01:06:06.366Z,999.87
2023-03-31T01:07:06.119Z,999.89
2023-03-31T01:08:06.110Z,999.89
2023-03-31T01:09:06.087Z,999.85
2023-03-31T01:10:06.074Z,999.82
2023-03-31T01:11:06.076Z,999.85
2023-03-31T01:12:06.050Z,999.82
2023-03-31T01:13:06.041Z,999.82
2023-03-31T01:14:06.029Z,999.79
2023-03-31T01:15:06.022Z,999.79
2023-03-31T01:16:06.241Z,999.76
2023-03-31T01:17:06.078Z,999.73
2023-03-31T01:18:06.088Z,999.74
2023-03-31T01:19:05.977Z,999.73
2023-03-31T01:20:05.965Z,999.68
2023-03-31T01:21:05.978Z,999.70
2023-03-31T01:22:05.952Z,999.69
2023-03-31T01:23:05.938Z,999.65
2023-03-31T01:24:05.943Z,999.63
2023-03-31T01:25:05.915Z,999.60
2023-03-31T01:26:06.095Z,999.63
2023-03-31T01:27:05.903Z,999.60
2023-03-31T01:28:05.877Z,999.61
2023-03-31T01:29:05.882Z,999.63
2023-03-31T01:30:05.857Z,999.57
2023-03-31T01:31:05.918Z,999.62
2023-03-31T01:32:05.835Z,999.58
2023-03-31T01:33:05.883Z,999.64
2023-03-31T01:34:05.826Z,999.62
2023-03-31T01:35:05.803Z,999.56
2023-03-31T01:36:05.962Z,999.55
2023-03-31T01:37:05.790Z,999.59
2023-03-31T01:38:05.785Z,999.54
2023-03-31T01:39:05.771Z,999.59
2023-03-31T01:40:05.779Z,999.56
2023-03-31T01:41:05.780Z,999.54
2023-03-31T01:42:05.745Z,999.57
2023-03-31T01:43:05.717Z,999.51
2023-03-31T01:44:05.706Z,999.50
2023-03-31T01:45:05.701Z,999.51
2023-03-31T01:46:05.846Z,999.48
2023-03-31T01:47:05.694Z,999.50
2023-03-31T01:48:05.679Z,999.45
2023-03-31T01:49:05.672Z,999.43
2023-03-31T01:50:05.644Z,999.46
2023-03-31T01:51:05.637Z,999.43
2023-03-31T01:52:05.660Z,999.42
2023-03-31T01:53:05.610Z,999.44
2023-03-31T01:54:05.602Z,999.33
2023-03-31T01:55:05.588Z,999.40
2023-03-31T01:56:05.755Z,999.39
2023-03-31T01:57:05.606Z,999.35
2023-03-31T01:58:05.557Z,999.36
2023-03-31T01:59:05.572Z,999.34
2023-03-31T02:00:05.543Z,999.38
2023-03-31T02:01:05.568Z,999.29
2023-03-31T02:02:05.539Z,999.29
2023-03-31T02:03:05.564Z,999.28
2023-03-31T02:04:05.493Z,999.32
2023-03-31T02:05:05.497Z,999.32
2023-03-31T02:06:05.670Z,999.31
2023-03-31T02:07:05.460Z,999.28
2023-03-31T02:08:05.448Z,999.30
2023-03-31T02:09:05.443Z,999.26
2023-03-31T02:10:05.423Z,999.30
2023-03-31T02:11:05.434Z,999.28
2023-03-31T02:12:05.435Z,999.23
2023-03-31T02:13:05.406Z,999.23
2023-03-31T02:14:05.386Z,999.20
2023-03-31T02:15:05.386Z,999.16
2023-03-31T02:16:05.663Z,999.18
2023-03-31T02:17:05.378Z,999.14
2023-03-31T02:18:05.431Z,999.10
2023-03-31T02:19:05.350Z,999.11
2023-03-31T02:20:05.318Z,999.09
2023-03-31T02:21:05.330Z,999.08
2023-03-31T02:22:05.296Z,999.13
2023-03-31T02:23:05.286Z,999.14
2023-03-31T02:24:05.273Z,999.12
2023-03-31T02:25:05.265Z,999.11
2023-03-31T02:26:05.481Z,999.14
2023-03-31T02:27:05.249Z,999.10
2023-03-31T02:28:05.252Z,999.07
2023-03-31T02:29:05.225Z,999.05
2023-03-31T02:30:05.210Z,999.04
2023-03-31T02:31:05.357Z,999.00
2023-03-31T02:32:05.187Z,999.01
2023-03-31T02:33:05.255Z,999.01
2023-03-31T02:34:05.163Z,999.01
2023-03-31T02:35:05.171Z,999.02
2023-03-31T02:36:05.605Z,999.00
2023-03-31T02:37:05.175Z,998.97
2023-03-31T02:38:05.135Z,999.00
2023-03-31T02:39:05.155Z,998.95
2023-03-31T02:40:05.173Z,998.94
2023-03-31T02:41:05.161Z,998.90
2023-03-31T02:42:05.103Z,998.89
2023-03-31T02:43:05.070Z,998.88
2023-03-31T02:44:05.091Z,998.87
2023-03-31T02:45:05.048Z,998.85
2023-03-31T02:46:05.258Z,998.88
2023-03-31T02:47:05.057Z,998.87
2023-03-31T02:48:05.015Z,998.89
2023-03-31T02:49:05.015Z,998.90
2023-03-31T02:50:04.997Z,998.89
2023-03-31T02:51:04.981Z,998.83
2023-03-31T02:52:04.988Z,998.85
2023-03-31T02:53:04.958Z,998.80
2023-03-31T02:54:04.962Z,998.78
2023-03-31T02:55:04.950Z,998.82
2023-03-31T02:56:05.178Z,998.76
2023-03-31T02:57:04.999Z,998.70
2023-03-31T02:58:04.906Z,998.74
2023-03-31T02:59:04.898Z,998.67
2023-03-31T03:00:04.905Z,998.70
2023-03-31T03:01:04.955Z,998.67
2023-03-31T03:02:04.948Z,998.70
2023-03-31T03:03:04.983Z,998.70
2023-03-31T03:04:04.843Z,998.69
2023-03-31T03:05:04.840Z,998.65
2023-03-31T03:06:05.683Z,998.67
2023-03-31T03:07:04.833Z,998.66
2023-03-31T03:08:04.799Z,998.65
2023-03-31T03:09:04.787Z,998.67
2023-03-31T03:10:04.776Z,998.66
2023-03-31T03:11:04.767Z,998.66
2023-03-31T03:12:04.818Z,998.61
2023-03-31T03:13:04.745Z,998.60
2023-03-31T03:14:04.732Z,998.60
2023-03-31T03:15:04.721Z,998.53
2023-03-31T03:16:04.906Z,998.59
2023-03-31T03:17:04.716Z,998.53
2023-03-31T03:18:04.723Z,998.53
2023-03-31T03:19:04.687Z,998.57
2023-03-31T03:20:04.667Z,998.55
2023-03-31T03:21:04.659Z,998.54
2023-03-31T03:22:05.603Z,998.54
2023-03-31T03:23:04.640Z,998.55
2023-03-31T03:24:04.630Z,998.53
2023-03-31T03:25:04.632Z,998.47
2023-03-31T03:26:04.918Z,998.52
2023-03-31T03:27:04.606Z,998.52
2023-03-31T03:28:04.589Z,998.52
2023-03-31T03:29:04.568Z,998.49
2023-03-31T03:30:04.578Z,998.49
2023-03-31T03:31:04.604Z,998.51
2023-03-31T03:32:04.603Z,998.44
2023-03-31T03:33:04.584Z,998.47
2023-03-31T03:34:04.516Z,998.44
2023-03-31T03:35:04.508Z,998.40
2023-03-31T03:36:04.911Z,998.40
2023-03-31T03:37:04.500Z,998.43
2023-03-31T03:38:04.473Z,998.37
2023-03-31T03:39:04.466Z,998.36
2023-03-31T03:40:04.458Z,998.37
2023-03-31T03:41:04.455Z,998.36
2023-03-31T03:42:04.451Z,998.34
2023-03-31T03:43:04.431Z,998.33
2023-03-31T03:44:04.412Z,998.31
2023-03-31T03:45:04.394Z,998.29
2023-03-31T03:46:04.573Z,998.26
2023-03-31T03:47:04.387Z,998.30
2023-03-31T03:48:04.460Z,998.22
2023-03-31T03:49:04.358Z,998.23
2023-03-31T03:50:04.340Z,998.21
2023-03-31T03:51:04.351Z,998.26
2023-03-31T03:52:04.338Z,998.22
2023-03-31T03:53:04.351Z,998.24
2023-03-31T03:54:04.299Z,998.25
2023-03-31T03:55:04.286Z,998.19
2023-03-31T03:56:04.488Z,998.22
2023-03-31T03:57:04.375Z,998.16
2023-03-31T03:58:04.267Z,998.21
2023-03-31T03:59:04.248Z,998.19
2023-03-31T04:00:04.277Z,998.17
2023-03-31T04:01:04.218Z,998.20
2023-03-31T04:02:04.309Z,998.17
2023-03-31T04:03:04.206Z,998.15
2023-03-31T04:04:04.203Z,998.16
2023-03-31T04:05:04.222Z,998.15
2023-03-31T04:06:04.521Z,998.16
2023-03-31T04:07:04.179Z,998.10
2023-03-31T04:08:04.139Z,998.08
2023-03-31T04:09:04.164Z,998.10
2023-03-31T04:10:04.119Z,998.11
2023-03-31T04:11:04.106Z,998.08
2023-03-31T04:12:04.122Z,998.06
2023-03-31T04:13:04.096Z,998.02
2023-03-31T04:14:04.076Z,998.03
2023-03-31T04:15:04.063Z,998.03
2023-03-31T04:16:04.110Z,998.04
2023-03-31T04:17:04.057Z,998.03
2023-03-31T04:18:04.079Z,997.99
2023-03-31T04:19:04.021Z,998.00
2023-03-31T04:20:04.034Z,998.02
2023-03-31T04:21:04.093Z,998.02
2023-03-31T04:22:04.038Z,998.03
2023-03-31T04:23:03.972Z,998.02
2023-03-31T04:24:03.962Z,998.00
2023-03-31T04:25:03.950Z,997.99
2023-03-31T04:26:04.376Z,997.95
2023-03-31T04:27:03.970Z,997.97
2023-03-31T04:28:03.917Z,997.95
2023-03-31T04:29:03.914Z,997.91
2023-03-31T04:30:03.902Z,997.90
2023-03-31T04:31:03.909Z,997.83
2023-03-31T04:32:03.939Z,997.86
2023-03-31T04:33:03.922Z,997.84
2023-03-31T04:34:03.855Z,997.82
2023-03-31T04:35:03.840Z,997.77
2023-03-31T04:36:04.307Z,997.84
2023-03-31T04:37:03.846Z,997.76
2023-03-31T04:38:03.808Z,997.75
2023-03-31T04:39:03.810Z,997.78
2023-03-31T04:40:03.792Z,997.76
2023-03-31T04:41:03.772Z,997.75
2023-03-31T04:42:03.789Z,997.74
2023-03-31T04:43:03.756Z,997.73
2023-03-31T04:44:03.740Z,997.71
2023-03-31T04:45:03.729Z,997.70
2023-03-31T04:46:03.884Z,997.72
2023-03-31T04:47:03.756Z,997.71
2023-03-31T04:48:03.719Z,997.72
2023-03-31T04:49:03.685Z,997.67
2023-03-31T04:50:03.699Z,997.61
2023-03-31T04:51:03.796Z,997.64
2023-03-31T04:52:03.709Z,997.63
2023-03-31T04:53:03.650Z,997.62
2023-03-31T04:54:03.633Z,997.65
2023-03-31T04:55:03.626Z,997.63
2023-03-31T04:56:03.787Z,997.61
2023-03-31T04:57:03.665Z,997.59
2023-03-31T04:58:03.588Z,997.55
2023-03-31T04:59:03.585Z,997.49
2023-03-31T05:00:03.572Z,997.46
2023-03-31T05:01:03.682Z,997.48
2023-03-31T05:02:03.606Z,997.44
2023-03-31T05:03:03.664Z,997.42
2023-03-31T05:04:03.538Z,997.43
2023-03-31T05:05:03.518Z,997.42
2023-03-31T05:06:03.793Z,997.39
2023-03-31T05:07:03.524Z,997.44
2023-03-31T05:08:03.508Z,997.39
2023-03-31T05:09:03.481Z,997.39
2023-03-31T05:10:03.473Z,997.35
2023-03-31T05:11:03.452Z,997.31
2023-03-31T05:12:03.484Z,997.31
2023-03-31T05:13:03.452Z,997.27
2023-03-31T05:14:03.422Z,997.26
2023-03-31T05:15:03.430Z,997.27
2023-03-31T05:16:03.579Z,997.23
2023-03-31T05:17:03.438Z,997.24
2023-03-31T05:18:03.404Z,997.23
2023-03-31T05:19:03.375Z,997.23
2023-03-31T05:20:03.359Z,997.24
2023-03-31T05:21:03.357Z,997.23
2023-03-31T05:22:03.356Z,997.20
2023-03-31T05:23:03.339Z,997.21
2023-03-31T05:24:03.338Z,997.25
2023-03-31T05:25:03.305Z,997.21
2023-03-31T05:26:03.345Z,997.27
2023-03-31T05:27:03.333Z,997.27
2023-03-31T05:28:03.273Z,997.25
2023-03-31T05:29:03.262Z,997.24
2023-03-31T05:30:03.275Z,997.16
2023-03-31T05:31:03.243Z,997.17
2023-03-31T05:32:03.374Z,997.10
2023-03-31T05:33:03.261Z,997.08
2023-03-31T05:34:03.313Z,997.07
2023-03-31T05:35:03.220Z,997.06
2023-03-31T05:36:03.222Z,997.05
2023-03-31T05:37:03.184Z,997.04
2023-03-31T05:38:03.177Z,997.05
2023-03-31T05:39:03.156Z,997.03
2023-03-31T05:40:03.164Z,997.05
2023-03-31T05:41:03.138Z,997.03
2023-03-31T05:42:03.144Z,996.98
2023-03-31T05:43:03.108Z,997.07
2023-03-31T05:44:03.124Z,997.06
2023-03-31T05:45:03.082Z,997.07
2023-03-31T05:46:03.132Z,997.02
2023-03-31T05:47:03.094Z,996.94
2023-03-31T05:48:03.113Z,997.02
2023-03-31T05:49:03.041Z,996.99
2023-03-31T05:50:03.029Z,996.92
2023-03-31T05:51:03.030Z,996.98
2023-03-31T05:52:03.054Z,996.91
2023-03-31T05:53:03.001Z,996.90
2023-03-31T05:54:02.999Z,996.90
2023-03-31T05:55:02.981Z,996.89
2023-03-31T05:56:03.372Z,996.87
2023-03-31T05:57:03.004Z,996.84
2023-03-31T05:58:02.946Z,996.76
2023-03-31T05:59:04.746Z,996.79
2023-03-31T06:00:03.744Z,996.77
2023-03-31T06:01:02.935Z,996.80
2023-03-31T06:02:02.986Z,996.76
2023-03-31T06:03:03.107Z,996.80
2023-03-31T06:04:02.943Z,996.83
2023-03-31T06:05:02.872Z,996.81
2023-03-31T06:06:02.866Z,996.78
2023-03-31T06:07:02.873Z,996.80
2023-03-31T06:08:02.865Z,996.79
2023-03-31T06:09:02.828Z,996.78
2023-03-31T06:10:02.820Z,996.75
2023-03-31T06:11:02.809Z,996.72
2023-03-31T06:12:02.998Z,996.70
2023-03-31T06:13:02.780Z,996.65
2023-03-31T06:14:02.770Z,996.67
2023-03-31T06:15:02.760Z,996.65
2023-03-31T06:16:02.896Z,996.64
2023-03-31T06:17:02.736Z,996.64
2023-03-31T06:18:02.824Z,996.55
2023-03-31T06:19:02.716Z,996.57
2023-03-31T06:20:07.695Z,996.61
2023-03-31T06:21:04.035Z,996.62
2023-03-31T06:22:02.691Z,996.57
2023-03-31T06:23:02.729Z,996.57
2023-03-31T06:24:02.677Z,996.56
2023-03-31T06:25:02.657Z,996.51
2023-03-31T06:26:02.657Z,996.55
2023-03-31T06:27:02.874Z,996.52
2023-03-31T06:28:02.678Z,996.50
2023-03-31T06:29:02.644Z,996.49
2023-03-31T06:30:02.612Z,996.51
2023-03-31T06:31:02.676Z,996.50
2023-03-31T06:32:02.699Z,996.45
2023-03-31T06:33:02.623Z,996.47
2023-03-31T06:34:02.561Z,996.36
2023-03-31T06:35:02.542Z,996.37
2023-03-31T06:36:02.570Z,996.38
2023-03-31T06:37:02.529Z,996.34
2023-03-31T06:38:02.526Z,996.38
2023-03-31T06:39:02.497Z,996.40
2023-03-31T06:40:02.486Z,996.42
2023-03-31T06:41:02.495Z,996.40
2023-03-31T06:42:02.475Z,996.43
2023-03-31T06:43:02.478Z,996.41
2023-03-31T06:44:02.489Z,996.38
2023-03-31T06:45:02.474Z,996.42
2023-03-31T06:46:02.473Z,996.40
2023-03-31T06:47:02.438Z,996.46
2023-03-31T06:48:02.565Z,996.40
2023-03-31T06:49:02.395Z,996.37
2023-03-31T06:50:02.383Z,996.35
2023-03-31T06:51:02.370Z,996.37
2023-03-31T06:52:02.365Z,996.32
2023-03-31T06:53:02.448Z,996.33
2023-03-31T06:54:02.401Z,996.31
2023-03-31T06:55:02.341Z,996.25
2023-03-31T06:56:02.317Z,996.28
2023-03-31T06:57:02.322Z,996.30
2023-03-31T06:58:02.321Z,996.22
2023-03-31T06:59:02.286Z,996.28
2023-03-31T07:00:02.341Z,996.24
2023-03-31T07:01:02.297Z,996.23
2023-03-31T07:02:02.370Z,996.22
2023-03-31T07:03:02.416Z,996.26
2023-03-31T07:04:02.237Z,996.23
2023-03-31T07:05:09.895Z,996.27
2023-03-31T07:06:02.205Z,996.21
2023-03-31T07:07:02.234Z,996.21
2023-03-31T07:08:02.577Z,996.21
2023-03-31T07:09:02.181Z,996.19
2023-03-31T07:10:02.158Z,996.12
2023-03-31T07:11:02.178Z,996.07
2023-03-31T07:12:02.134Z,996.16
2023-03-31T07:13:04.357Z,996.15
2023-03-31T07:14:02.111Z,996.14
2023-03-31T07:15:02.106Z,996.14
2023-03-31T07:16:02.139Z,996.12
2023-03-31T07:17:02.083Z,996.06
2023-03-31T07:18:02.263Z,996.06
2023-03-31T07:19:02.064Z,996.04
2023-03-31T07:20:02.055Z,995.99
2023-03-31T07:21:02.077Z,995.95
2023-03-31T07:22:02.026Z,995.93
2023-03-31T07:23:02.124Z,995.91
2023-03-31T07:24:02.003Z,995.98
2023-03-31T07:25:01.992Z,995.97
2023-03-31T07:26:01.982Z,996.03
2023-03-31T07:27:01.973Z,996.00
2023-03-31T07:28:01.990Z,996.05
2023-03-31T07:29:01.950Z,996.02
2023-03-31T07:30:01.943Z,996.05
2023-03-31T07:31:01.935Z,996.01
2023-03-31T07:32:02.106Z,996.02
2023-03-31T07:33:01.998Z,996.01
2023-03-31T07:34:01.892Z,996.01
2023-03-31T07:35:01.887Z,995.98
2023-03-31T07:36:11.917Z,995.97
2023-03-31T07:37:02.872Z,995.96
2023-03-31T07:38:01.844Z,995.96
2023-03-31T07:39:01.844Z,995.94
2023-03-31T07:40:01.843Z,995.95
2023-03-31T07:41:08.472Z,995.89
2023-03-31T07:42:02.825Z,995.94
2023-03-31T07:43:01.828Z,995.89
2023-03-31T07:44:01.789Z,995.87
2023-03-31T07:45:01.843Z,995.82
2023-03-31T07:46:01.826Z,995.86
2023-03-31T07:47:01.754Z,995.80
2023-03-31T07:48:01.843Z,995.78
2023-03-31T07:49:01.733Z,995.75
2023-03-31T07:50:01.740Z,995.75
2023-03-31T07:51:01.781Z,995.78
2023-03-31T07:52:01.709Z,995.76
2023-03-31T07:53:01.730Z,995.76
2023-03-31T07:54:01.724Z,995.76
2023-03-31T07:55:01.670Z,995.76
2023-03-31T07:56:01.652Z,995.76
2023-03-31T07:57:01.744Z,995.75
2023-03-31T07:58:01.661Z,995.75
2023-03-31T07:59:01.630Z,995.76
2023-03-31T08:00:01.626Z,995.74
2023-03-31T08:01:01.616Z,995.68
2023-03-31T08:02:01.704Z,995.72
2023-03-31T08:03:01.666Z,995.67
2023-03-31T08:04:01.637Z,995.67
2023-03-31T08:05:01.576Z,995.60
2023-03-31T08:06:01.552Z,995.60
2023-03-31T08:07:01.538Z,995.57
2023-03-31T08:08:01.543Z,995.54
2023-03-31T08:09:01.555Z,995.58
2023-03-31T08:10:01.512Z,995.55
2023-03-31T08:11:01.536Z,995.57
2023-03-31T08:12:01.486Z,995.58
2023-03-31T08:13:01.493Z,995.54
2023-03-31T08:14:01.469Z,995.54
2023-03-31T08:15:01.495Z,995.52
2023-03-31T08:16:01.462Z,995.57
2023-03-31T08:17:01.438Z,995.53
2023-03-31T08:18:01.475Z,995.47
2023-03-31T08:19:01.416Z,995.45
2023-03-31T08:20:06.153Z,995.47
2023-03-31T08:21:02.400Z,995.41
2023-03-31T08:22:01.383Z,995.47
2023-03-31T08:23:01.380Z,995.44
2023-03-31T08:24:01.361Z,995.47
2023-03-31T08:25:01.356Z,995.44
2023-03-31T08:26:01.339Z,995.46
2023-03-31T08:27:01.373Z,995.42
2023-03-31T08:28:01.359Z,995.40
2023-03-31T08:29:01.311Z,995.39
2023-03-31T08:30:01.293Z,995.42
2023-03-31T08:31:01.283Z,995.38
2023-03-31T08:32:01.342Z,995.37
2023-03-31T08:33:01.312Z,995.35
2023-03-31T08:34:01.259Z,995.38
2023-03-31T08:35:01.241Z,995.34
2023-03-31T08:36:01.289Z,995.33
2023-03-31T08:37:01.235Z,995.31
2023-03-31T08:38:01.219Z,995.29
2023-03-31T08:39:01.204Z,995.20
2023-03-31T08:40:01.187Z,995.23
2023-03-31T08:41:01.180Z,995.19
2023-03-31T08:42:01.190Z,995.16
2023-03-31T08:43:01.159Z,995.04
2023-03-31T08:44:01.148Z,995.07
2023-03-31T08:45:01.194Z,995.07
2023-03-31T08:46:01.304Z,995.07
2023-03-31T08:47:01.121Z,995.05
2023-03-31T08:48:01.147Z,995.06
2023-03-31T08:49:01.202Z,995.02
2023-03-31T08:50:01.078Z,995.07
2023-03-31T08:51:01.072Z,995.01
2023-03-31T08:52:01.087Z,995.01
2023-03-31T08:53:01.080Z,995.02
2023-03-31T08:54:01.047Z,994.99
2023-03-31T08:55:01.022Z,995.01
2023-03-31T08:56:01.010Z,995.00
2023-03-31T08:57:01.072Z,995.05
2023-03-31T08:58:01.017Z,995.02
2023-03-31T08:59:00.992Z,994.95
2023-03-31T09:00:00.966Z,994.98
2023-03-31T09:01:01.005Z,995.00
2023-03-31T09:02:00.968Z,994.96
2023-03-31T09:03:01.099Z,994.96
2023-03-31T09:04:01.025Z,994.98
2023-03-31T09:05:00.913Z,994.92
2023-03-31T09:06:01.206Z,994.95
2023-03-31T09:07:00.895Z,994.90
2023-03-31T09:08:00.915Z,994.90
2023-03-31T09:09:00.897Z,994.85
2023-03-31T09:10:00.862Z,994.86
2023-03-31T09:11:00.849Z,994.77
2023-03-31T09:12:00.835Z,994.81
2023-03-31T09:13:00.845Z,994.78
2023-03-31T09:14:00.833Z,994.85
2023-03-31T09:15:00.811Z,994.81
2023-03-31T09:16:00.796Z,994.84
2023-03-31T09:17:00.916Z,994.89
2023-03-31T09:18:00.841Z,994.78
2023-03-31T09:19:00.784Z,994.87
2023-03-31T09:20:00.751Z,994.83
2023-03-31T09:21:00.744Z,994.78
2023-03-31T09:22:00.729Z,994.73
2023-03-31T09:23:00.737Z,994.68
2023-03-31T09:24:00.740Z,994.70
2023-03-31T09:25:00.702Z,994.69
2023-03-31T09:26:00.693Z,994.68
2023-03-31T09:27:00.680Z,994.66
2023-03-31T09:28:00.699Z,994.70
2023-03-31T09:29:00.703Z,994.64
2023-03-31T09:30:00.644Z,994.62
2023-03-31T09:31:00.637Z,994.60
2023-03-31T09:32:00.687Z,994.56
2023-03-31T09:33:00.641Z,994.56
2023-03-31T09:34:00.643Z,994.49
2023-03-31T09:35:00.595Z,994.48
2023-03-31T09:36:00.675Z,994.47
2023-03-31T09:37:00.575Z,994.43
2023-03-31T09:38:00.562Z,994.44
2023-03-31T09:39:00.562Z,994.38
2023-03-31T09:40:00.574Z,994.36
2023-03-31T09:41:00.543Z,994.36
2023-03-31T09:42:00.527Z,994.31
2023-03-31T09:43:00.530Z,994.34
2023-03-31T09:44:00.605Z,994.30
2023-03-31T09:45:00.496Z,994.31
2023-03-31T09:46:08.537Z,994.27
2023-03-31T09:47:01.495Z,994.28
2023-03-31T09:48:00.470Z,994.28
2023-03-31T09:49:00.528Z,994.26
2023-03-31T09:50:00.433Z,994.25
2023-03-31T09:51:00.497Z,994.17
2023-03-31T09:52:00.414Z,994.16
2023-03-31T09:53:00.403Z,994.17
2023-03-31T09:54:00.409Z,994.11
2023-03-31T09:55:00.384Z,994.09
2023-03-31T09:56:00.394Z,994.16
2023-03-31T09:57:00.383Z,994.13
2023-03-31T09:58:00.360Z,994.10
2023-03-31T09:59:00.355Z,994.10
2023-03-31T10:00:00.333Z,994.00
2023-03-31T10:01:00.322Z,994.02
2023-03-31T10:02:00.548Z,993.95
2023-03-31T10:03:00.391Z,993.96
2023-03-31T10:04:00.346Z,994.00
2023-03-31T10:05:00.269Z,993.95
2023-03-31T10:06:00.262Z,993.94
2023-03-31T10:07:00.268Z,994.03
2023-03-31T10:08:00.239Z,993.99
2023-03-31T10:09:00.266Z,993.95
2023-03-31T10:10:00.281Z,993.94
2023-03-31T10:11:00.226Z,993.98
2023-03-31T10:12:00.216Z,993.92
2023-03-31T10:13:00.282Z,993.91
2023-03-31T10:14:00.208Z,993.92
2023-03-31T10:15:00.195Z,993.87
2023-03-31T10:16:00.248Z,993.81
2023-03-31T10:17:00.221Z,993.78
2023-03-31T10:18:00.227Z,993.84
2023-03-31T10:19:00.231Z,993.79
2023-03-31T10:20:00.223Z,993.78
2023-03-31T10:21:00.159Z,993.74
2023-03-31T10:22:00.138Z,993.75
2023-03-31T10:23:00.125Z,993.78
2023-03-31T10:24:00.150Z,993.74
2023-03-31T10:25:00.112Z,993.72
2023-03-31T10:26:00.067Z,993.69
2023-03-31T10:27:00.071Z,993.62
2023-03-31T10:28:00.048Z,993.71
2023-03-31T10:29:00.021Z,993.75
2023-03-31T10:30:00.003Z,993.73
2023-03-31T10:31:00.008Z,993.66
2023-03-31T10:32:00.044Z,993.69
2023-03-31T10:33:59.966Z,993.65
2023-03-31T10:34:59.947Z,993.66
2023-03-31T10:36:00.002Z,993.57
2023-03-31T10:36:59.925Z,993.57
2023-03-31T10:37:59.915Z,993.55
2023-03-31T10:38:59.933Z,993.48
2023-03-31T10:39:59.890Z,993.56
2023-03-31T10:40:59.965Z,993.51
2023-03-31T10:41:59.866Z,993.51
2023-03-31T10:42:59.861Z,993.54
2023-03-31T10:43:59.896Z,993.56
2023-03-31T10:44:59.837Z,993.57
2023-03-31T10:45:59.827Z,993.57
2023-03-31T10:46:59.857Z,993.60
2023-03-31T10:47:59.864Z,993.57
2023-03-31T10:48:59.791Z,993.53
2023-03-31T10:49:59.790Z,993.52
2023-03-31T10:50:59.776Z,993.51
2023-03-31T10:51:59.775Z,993.52
2023-03-31T10:52:59.778Z,993.58
2023-03-31T10:53:59.745Z,993.54
2023-03-31T10:54:59.731Z,993.54
2023-03-31T10:55:59.717Z,993.50
2023-03-31T10:56:59.732Z,993.43
2023-03-31T10:57:59.711Z,993.43
2023-03-31T10:59:05.797Z,993.45
2023-03-31T11:00:00.701Z,993.41
2023-03-31T11:00:59.668Z,993.41
2023-03-31T11:02:00.586Z,993.39
2023-03-31T11:02:59.716Z,993.37
2023-03-31T11:03:59.742Z,993.35
2023-03-31T11:04:59.630Z,993.38
2023-03-31T11:05:59.607Z,993.30
2023-03-31T11:06:59.600Z,993.36
2023-03-31T11:07:59.620Z,993.33
2023-03-31T11:08:59.600Z,993.35
2023-03-31T11:09:59.573Z,993.28
2023-03-31T11:10:59.571Z,993.28
2023-03-31T11:11:59.548Z,993.27
2023-03-31T11:12:59.535Z,993.27
2023-03-31T11:13:59.540Z,993.27
2023-03-31T11:14:59.514Z,993.21
2023-03-31T11:15:59.549Z,993.22
2023-03-31T11:16:59.503Z,993.21
2023-03-31T11:17:59.523Z,993.17
2023-03-31T11:18:59.533Z,993.16
2023-03-31T11:19:59.458Z,993.15
2023-03-31T11:20:59.469Z,993.14
2023-03-31T11:21:59.440Z,993.08
2023-03-31T11:22:59.433Z,993.06
2023-03-31T11:23:59.427Z,993.07
2023-03-31T11:24:59.401Z,993.05
2023-03-31T11:25:59.394Z,993.03
2023-03-31T11:26:59.404Z,993.06
2023-03-31T11:27:59.369Z,993.00
2023-03-31T11:28:59.406Z,992.97
2023-03-31T11:29:59.362Z,992.94
2023-03-31T11:30:59.340Z,992.89
2023-03-31T11:31:59.470Z,992.87
2023-03-31T11:32:59.392Z,992.83
2023-03-31T11:33:59.326Z,992.84
2023-03-31T11:34:59.304Z,992.82
2023-03-31T11:35:59.311Z,992.77
2023-03-31T11:36:59.277Z,992.76
2023-03-31T11:37:59.277Z,992.74
2023-03-31T11:38:59.264Z,992.67
2023-03-31T11:39:59.243Z,992.70
2023-03-31T11:40:59.320Z,992.64
2023-03-31T11:41:59.219Z,992.63
2023-03-31T11:42:59.218Z,992.61
2023-03-31T11:43:59.229Z,992.64
2023-03-31T11:44:59.225Z,992.60
2023-03-31T11:45:59.212Z,992.64
2023-03-31T11:46:59.184Z,992.57
2023-03-31T11:47:59.330Z,992.59
2023-03-31T11:48:59.161Z,992.55
2023-03-31T11:49:59.202Z,992.55
2023-03-31T11:50:59.124Z,992.55
2023-03-31T11:51:59.144Z,992.48
2023-03-31T11:52:59.106Z,992.52
2023-03-31T11:53:59.125Z,992.48
2023-03-31T11:55:01.460Z,992.48
2023-03-31T11:55:59.138Z,992.49
2023-03-31T11:56:59.091Z,992.45
2023-03-31T11:57:59.053Z,992.45
2023-03-31T11:58:59.046Z,992.42
2023-03-31T11:59:59.026Z,992.39
2023-03-31T12:01:00.669Z,992.34
2023-03-31T12:01:59.013Z,992.36
2023-03-31T12:02:59.062Z,992.37
2023-03-31T12:03:59.130Z,992.34
2023-03-31T12:04:58.971Z,992.39
2023-03-31T12:05:58.998Z,992.34
2023-03-31T12:07:00.738Z,992.32
2023-03-31T12:07:58.942Z,992.28
2023-03-31T12:08:58.989Z,992.28
2023-03-31T12:09:58.949Z,992.27
2023-03-31T12:10:58.908Z,992.25
2023-03-31T12:11:58.896Z,992.25
2023-03-31T12:13:00.151Z,992.20
2023-03-31T12:13:58.895Z,992.20
2023-03-31T12:14:58.867Z,992.15
2023-03-31T12:15:58.879Z,992.08
2023-03-31T12:16:58.844Z,992.12
2023-03-31T12:17:58.913Z,992.09
2023-03-31T12:18:58.828Z,992.11
2023-03-31T12:19:58.839Z,992.09
2023-03-31T12:20:58.804Z,992.07
2023-03-31T12:21:58.789Z,992.06
2023-03-31T12:22:58.774Z,992.10
2023-03-31T12:23:58.804Z,992.05
2023-03-31T12:24:58.757Z,992.01
2023-03-31T12:25:58.746Z,991.96
2023-03-31T12:26:58.733Z,991.95